Aeroporto :
LOGIN :

Iscrizione | Disclaimer

   EN    FR    IT 

 










Sommario :    VFR   VFR Marginale   IFR   IFR Intensivo   IFR Molto Intensivo
Visibilità : 
Base nubi : 
>= 8 km
>= 3000ft
5 / 8 km
1000 / 3000 ft
1500m / 5 km
500 / 1000 ft
800 / 1500m
200 / 500 ft
< 800m
< 200 ft
Simboli :   Temporali  Nebbia  Neve Forte  Precipitazioni Forti  Vento > 20 kt
SIGMETs :   Varie  Temporali  Ghiacco  Turbolenza  Onda orograficha  Ceneri Vulcaniche






- Altitudine del aeroporto : 308 ft
- Codice IATA : POZ


EPPO - Poznan-Lawica

ULTIMO METAR :
  • 121800Z 13003KT 2500 -RA BR FEW003 OVC026 05/05 Q1008

METARs OBSOLETI :
  • 121730Z 14003KT 2600 -RA BR FEW003 OVC026 05/05 Q1008
  • 121700Z 14003KT 2500 -RA BR SCT004 OVC030 05/05 Q1008
  • 121630Z 13004KT 3300 -RA BR SCT004 OVC033 05/05 Q1008
  • 121600Z 14004KT 3200 -RA BR SCT004 OVC033 05/05 Q1008
  • 121530Z 14004KT 4000 -RA BR FEW004 05/05 Q1009

TAF TAF EPPO
Valido dal 12 a 18 ore il 13 a 18 ore UTC


121730Z 1218/1318 31005KT 3000 -RA SCT004 OVC025
TEMPO 1218/1304 1500 RA BR BKN004 BKN012
BECMG 1304/1306 BKN009
TEMPO 1308/1318 BKN003



MetMap, La meteo Aeronautica in un colpo d'occhio ! - Copyright ORBIFLY Dicembre 2007 - Disclaimer

ORBIFLY MET'MAP TEAM :

Programmazione e sviluppo : Alexandra Zaïnal
Concezione e sviluppo : Baudouin d'Aumeries
Co-Programmazione e sviluppo : Marc-Olivier Méhu
Supporto tecnico e logistico : Manuel Goepfert
Aiuto per la traduzione : Arnaldo La Scala

Contatto : metmap@orbifly.com




FONTI E CREDITI :

   NOAA